Time;durP1;ratioP1;P1;durP2;ratioP2;P2;SDS_P1;SDS_P2;PMS_P1;PMS_P2;Temp;Humidity;BMP_temperature;BMP_pressure;BME280_temperature;BME280_humidity;BME280_pressure;Samples;Min_cycle;Max_cycle;Signal;HPM_P1;HPM_P2
2022/01/19 00:01:11;;;;;;;;;;;2.20;99.90;;;;;;5052947;28;19923;-75
2022/01/19 00:03:37;;;;;;;;;;;2.20;99.90;;;;;;5074677;28;19919;-75
2022/01/19 00:06:02;;;;;;;;;;;2.20;99.90;;;;;;5074644;28;19986;-75
2022/01/19 00:08:29;;;;;;;;;;;2.20;99.90;;;;;;5050066;28;19917;-75
2022/01/19 00:10:55;;;;;;;;;;;2.10;99.90;;;;;;5074610;28;19964;-75
2022/01/19 00:13:20;;;;;;;;;;;1.90;99.90;;;;;;5075299;28;19912;-76
2022/01/19 00:15:46;;;;;;;;;;;1.90;99.90;;;;;;5073640;28;19966;-75
2022/01/19 00:18:12;;;;;;;;;;;1.90;99.90;;;;;;5074537;28;19931;-75
2022/01/19 00:20:38;;;;;;;;;;;1.90;99.90;;;;;;5075190;28;20741;-75
2022/01/19 00:23:04;;;;;;;;;;;1.80;99.90;;;;;;5074761;28;19916;-75
2022/01/19 00:25:31;;;;;;;;;;;1.70;99.90;;;;;;5057556;28;19917;-75
2022/01/19 00:27:56;;;;;;;;;;;1.60;99.90;;;;;;5074614;28;19913;-75
2022/01/19 00:30:22;;;;;;;;;;;1.50;99.90;;;;;;5074915;28;19920;-75
2022/01/19 00:32:50;;;;;;;;;;;1.50;99.90;;;;;;5074387;28;23673;-75
2022/01/19 00:35:16;;;;;;;;;;;1.40;99.90;;;;;;5057500;28;19923;-75
2022/01/19 00:37:42;;;;;;;;;;;1.40;99.90;;;;;;5074842;28;20263;-75
2022/01/19 00:40:09;;;;;;;;;;;1.40;99.90;;;;;;5075261;28;19913;-75
2022/01/19 00:42:35;;;;;;;;;;;1.40;99.90;;;;;;5074908;28;19916;-75
2022/01/19 00:45:00;;;;;;;;;;;1.40;99.90;;;;;;5074568;28;19961;-75
2022/01/19 00:47:26;;;;;;;;;;;1.50;99.90;;;;;;5074349;28;19958;-75
2022/01/19 00:49:51;;;;;;;;;;;1.40;99.90;;;;;;5073102;28;19923;-75
2022/01/19 00:52:17;;;;;;;;;;;1.30;99.90;;;;;;5074862;28;20004;-75
2022/01/19 00:54:42;;;;;;;;;;;1.30;99.90;;;;;;5074208;28;19920;-75
2022/01/19 00:57:09;;;;;;;;;;;1.30;99.90;;;;;;5074325;28;19977;-75
2022/01/19 00:59:35;;;;;;;;;;;1.30;99.90;;;;;;5074286;28;19934;-75
2022/01/19 01:02:01;;;;;;;;;;;1.20;99.90;;;;;;5074492;28;20007;-75
2022/01/19 01:04:26;;;;;;;;;;;1.10;99.90;;;;;;5074789;28;20204;-75
2022/01/19 01:06:52;;;;;;;;;;;1.00;99.90;;;;;;5073551;28;19913;-75
2022/01/19 01:09:17;;;;;;;;;;;0.90;99.90;;;;;;5071894;28;19919;-75
2022/01/19 01:11:58;;;;;;;;;;;0.90;99.90;;;;;;5074131;28;19932;-75
2022/01/19 01:19:53;;;;;;;;;;;0.90;99.90;;;;;;5074173;28;20261;-75
2022/01/19 01:22:19;;;;;;;;;;;0.80;99.90;;;;;;5074881;28;19921;-75
2022/01/19 01:24:44;;;;;;;;;;;0.70;99.90;;;;;;5060313;28;20351;-75
2022/01/19 01:27:10;;;;;;;;;;;0.70;99.90;;;;;;5078113;28;19916;-75
2022/01/19 01:29:35;;;;;;;;;;;0.70;99.90;;;;;;5078015;28;20008;-75
2022/01/19 01:32:01;;;;;;;;;;;0.80;99.90;;;;;;5076915;28;19951;-75
2022/01/19 01:34:26;;;;;;;;;;;0.60;99.90;;;;;;5078234;28;19919;-75
2022/01/19 01:36:52;;;;;;;;;;;0.60;99.90;;;;;;5078009;28;20257;-75
2022/01/19 01:39:17;;;;;;;;;;;0.60;99.90;;;;;;5077367;28;20367;-75
2022/01/19 01:41:43;;;;;;;;;;;0.60;99.90;;;;;;5076413;28;20381;-75
2022/01/19 01:44:08;;;;;;;;;;;0.50;99.90;;;;;;5076716;28;19936;-75
2022/01/19 01:46:45;;;;;;;;;;;0.50;99.90;;;;;;5077885;28;20005;-75
2022/01/19 01:49:16;;;;;;;;;;;0.40;99.90;;;;;;5077853;28;19958;-75
2022/01/19 01:54:26;;;;;;;;;;;0.20;99.90;;;;;;5077475;28;19919;-75
2022/01/19 01:56:53;;;;;;;;;;;0.20;99.90;;;;;;5077207;28;19912;-75
2022/01/19 01:59:18;;;;;;;;;;;0.20;99.90;;;;;;5059767;28;19935;-75
2022/01/19 02:01:44;;;;;;;;;;;0.10;99.90;;;;;;5077640;28;20328;-75
2022/01/19 02:04:10;;;;;;;;;;;0.10;99.90;;;;;;5077274;28;19920;-75
2022/01/19 02:09:29;;;;;;;;;;;0.20;99.90;;;;;;5038020;28;20375;-75
2022/01/19 02:23:01;;;;;;;;;;;0.10;99.90;;;;;;5044486;28;19924;-75
2022/01/19 02:25:30;;;;;;;;;;;0.10;99.90;;;;;;5076360;28;20280;-75
2022/01/19 02:41:41;;;;;;;;;;;0.30;99.90;;;;;;5076883;28;19970;-75
2022/01/19 02:44:09;;;;;;;;;;;0.30;99.90;;;;;;5058367;28;19912;-76
2022/01/19 02:49:27;;;;;;;;;;;0.30;99.90;;;;;;5033528;28;19920;-76
2022/01/19 02:51:53;;;;;;;;;;;0.20;99.90;;;;;;5074164;28;20215;-75
2022/01/19 02:54:20;;;;;;;;;;;0.20;99.90;;;;;;5076269;28;19917;-76
2022/01/19 02:56:50;;;;;;;;;;;0.20;99.90;;;;;;5075347;28;19908;-75
2022/01/19 02:59:22;;;;;;;;;;;0.20;99.90;;;;;;5076117;28;19956;-75
2022/01/19 03:09:45;;;;;;;;;;;0.40;99.90;;;;;;5076500;28;19916;-76
2022/01/19 03:12:11;;;;;;;;;;;0.50;99.90;;;;;;5074937;28;19958;-76
2022/01/19 03:14:37;;;;;;;;;;;0.60;99.90;;;;;;5074643;28;19955;-75
2022/01/19 03:17:03;;;;;;;;;;;0.50;99.90;;;;;;5075592;28;19917;-76
2022/01/19 03:19:30;;;;;;;;;;;0.60;99.90;;;;;;5075752;28;19924;-76
2022/01/19 03:21:56;;;;;;;;;;;0.60;99.90;;;;;;5058400;28;19908;-75
2022/01/19 03:24:22;;;;;;;;;;;0.50;99.90;;;;;;5075791;28;19978;-76
2022/01/19 03:26:47;;;;;;;;;;;0.50;99.90;;;;;;5055054;28;19925;-76
2022/01/19 03:29:13;;;;;;;;;;;0.40;99.90;;;;;;5075471;28;19932;-76
2022/01/19 03:31:38;;;;;;;;;;;0.40;99.90;;;;;;5074602;28;19999;-76
2022/01/19 03:34:05;;;;;;;;;;;0.40;99.90;;;;;;5076015;28;19917;-76
2022/01/19 03:36:31;;;;;;;;;;;0.50;99.90;;;;;;5075159;28;19916;-76
2022/01/19 03:38:57;;;;;;;;;;;0.50;99.90;;;;;;5057816;28;20338;-76
2022/01/19 03:41:22;;;;;;;;;;;0.50;99.90;;;;;;5074083;28;20050;-76
2022/01/19 03:43:48;;;;;;;;;;;0.50;99.90;;;;;;5076102;28;20360;-75
2022/01/19 03:46:15;;;;;;;;;;;0.50;99.90;;;;;;5074930;28;20334;-75
2022/01/19 03:51:15;;;;;;;;;;;0.50;99.90;;;;;;5074127;28;19913;-76
2022/01/19 03:53:41;;;;;;;;;;;0.40;99.90;;;;;;5075979;28;19919;-76
2022/01/19 03:56:07;;;;;;;;;;;0.50;99.90;;;;;;5075595;28;19913;-76
2022/01/19 03:58:32;;;;;;;;;;;0.50;99.90;;;;;;5070233;28;20016;-75
2022/01/19 04:00:59;;;;;;;;;;;0.40;99.90;;;;;;5057273;28;19962;-76
2022/01/19 04:04:16;;;;;;;;;;;0.20;99.90;;;;;;5057591;28;19916;-76
2022/01/19 04:06:27;;;;;;;;;;;0.10;99.90;;;;;;5071939;28;19912;-76
2022/01/19 04:08:53;;;;;;;;;;;0.00;99.90;;;;;;5075242;28;19919;-76
2022/01/19 04:11:21;;;;;;;;;;;0.00;99.90;;;;;;5074882;28;19920;-76
2022/01/19 04:16:21;;;;;;;;;;;0.20;99.90;;;;;;5075214;28;19928;-76
2022/01/19 04:18:47;;;;;;;;;;;0.20;99.90;;;;;;5074926;28;19923;-76
2022/01/19 04:21:14;;;;;;;;;;;0.30;99.90;;;;;;5074855;28;19913;-76
2022/01/19 04:23:39;;;;;;;;;;;0.30;99.90;;;;;;5074956;28;19916;-76
2022/01/19 04:26:05;;;;;;;;;;;0.40;99.90;;;;;;5056383;28;20208;-75
2022/01/19 04:28:31;;;;;;;;;;;0.50;99.90;;;;;;5075040;28;19916;-75
2022/01/19 04:30:56;;;;;;;;;;;0.60;99.90;;;;;;5057085;28;20000;-75
2022/01/19 04:33:25;;;;;;;;;;;0.70;99.90;;;;;;5073599;28;20011;-75
2022/01/19 04:35:55;;;;;;;;;;;0.80;99.90;;;;;;5072717;28;19922;-75
2022/01/19 05:06:05;;;;;;;;;;;1.40;99.90;;;;;;5067794;28;19916;-75
2022/01/19 05:13:53;;;;;;;;;;;1.40;99.90;;;;;;5078869;28;19919;-75
2022/01/19 05:16:19;;;;;;;;;;;1.50;99.90;;;;;;5078471;28;19998;-75
2022/01/19 05:18:46;;;;;;;;;;;1.50;99.90;;;;;;5078058;28;19978;-75
2022/01/19 05:21:11;;;;;;;;;;;1.50;99.90;;;;;;5061814;28;19932;-75
2022/01/19 05:23:37;;;;;;;;;;;1.50;99.90;;;;;;5092762;28;19919;-75
2022/01/19 05:26:03;;;;;;;;;;;1.50;99.90;;;;;;5077884;28;19912;-75
2022/01/19 05:28:29;;;;;;;;;;;1.50;99.90;;;;;;5093288;28;19920;-75
2022/01/19 05:30:54;;;;;;;;;;;1.60;99.90;;;;;;5098724;28;20007;-75
2022/01/19 05:33:20;;;;;;;;;;;1.60;99.90;;;;;;5080559;28;20307;-75
2022/01/19 05:35:45;;;;;;;;;;;1.70;99.90;;;;;;5080547;28;19911;-75
2022/01/19 05:38:11;;;;;;;;;;;1.70;99.90;;;;;;5086553;28;19927;-75
2022/01/19 05:40:36;;;;;;;;;;;1.70;99.90;;;;;;5058204;28;19920;-75
2022/01/19 05:43:03;;;;;;;;;;;1.70;99.90;;;;;;5060380;28;19916;-75
2022/01/19 05:45:29;;;;;;;;;;;1.70;99.90;;;;;;5077460;28;19920;-74
2022/01/19 05:47:54;;;;;;;;;;;1.70;99.90;;;;;;5075843;28;19916;-75
2022/01/19 05:50:20;;;;;;;;;;;1.80;99.90;;;;;;5078036;28;19913;-75
2022/01/19 05:52:46;;;;;;;;;;;1.80;99.90;;;;;;5077950;28;19915;-75
2022/01/19 05:55:11;;;;;;;;;;;1.80;99.90;;;;;;5078134;28;19919;-75
2022/01/19 05:57:37;;;;;;;;;;;1.80;99.90;;;;;;5077547;28;20353;-75
2022/01/19 06:00:04;;;;;;;;;;;1.90;99.90;;;;;;5073433;28;19936;-75
2022/01/19 06:02:29;;;;;;;;;;;1.90;99.90;;;;;;5072675;28;20015;-75
2022/01/19 06:04:55;;;;;;;;;;;1.90;99.90;;;;;;5076986;28;20284;-75
2022/01/19 06:07:28;;;;;;;;;;;1.90;99.90;;;;;;5073906;28;20305;-75
2022/01/19 06:10:02;;;;;;;;;;;1.90;99.90;;;;;;5070590;28;19916;-75
2022/01/19 06:12:28;;;;;;;;;;;1.90;99.90;;;;;;5071003;28;19928;-75
2022/01/19 06:14:54;;;;;;;;;;;1.90;99.90;;;;;;5074082;28;19912;-75
2022/01/19 06:17:19;;;;;;;;;;;2.00;99.90;;;;;;5073327;28;20199;-75
2022/01/19 06:19:48;;;;;;;;;;;2.00;99.90;;;;;;5073300;28;19912;-75
2022/01/19 06:22:14;;;;;;;;;;;2.00;99.90;;;;;;5069313;28;19916;-74
2022/01/19 06:24:40;;;;;;;;;;;2.10;99.90;;;;;;5073808;28;19913;-75
2022/01/19 06:27:06;;;;;;;;;;;2.00;99.90;;;;;;5076183;28;19958;-75
2022/01/19 06:29:31;;;;;;;;;;;2.00;99.90;;;;;;5073102;28;20034;-75
2022/01/19 06:31:57;;;;;;;;;;;2.00;99.90;;;;;;5058485;28;19909;-75
2022/01/19 06:34:22;;;;;;;;;;;2.10;99.90;;;;;;5076322;28;20016;-74
2022/01/19 06:36:51;;;;;;;;;;;2.10;99.90;;;;;;5070621;28;19912;-75
2022/01/19 06:39:17;;;;;;;;;;;2.10;99.90;;;;;;5057312;28;19913;-75
2022/01/19 06:41:42;;;;;;;;;;;2.10;99.90;;;;;;5072964;28;21761;-74
2022/01/19 06:44:08;;;;;;;;;;;2.10;99.90;;;;;;5073458;28;19917;-74
2022/01/19 06:46:34;;;;;;;;;;;2.10;99.90;;;;;;5074417;28;19913;-75
2022/01/19 06:48:59;;;;;;;;;;;2.20;99.90;;;;;;5075160;28;19913;-75
2022/01/19 06:51:25;;;;;;;;;;;2.20;99.90;;;;;;5075585;28;19965;-75
2022/01/19 06:53:52;;;;;;;;;;;2.30;99.90;;;;;;5076812;28;19909;-75
2022/01/19 06:56:18;;;;;;;;;;;2.30;99.90;;;;;;5075752;28;19916;-75
2022/01/19 06:58:43;;;;;;;;;;;2.30;99.90;;;;;;5076667;28;19912;-74
2022/01/19 07:01:09;;;;;;;;;;;2.30;99.90;;;;;;5058848;28;20227;-75
2022/01/19 07:03:34;;;;;;;;;;;2.40;99.90;;;;;;5076868;28;19919;-75
2022/01/19 07:06:01;;;;;;;;;;;2.40;99.90;;;;;;5076694;28;20253;-75
2022/01/19 07:08:27;;;;;;;;;;;2.40;99.90;;;;;;5058646;28;19912;-75
2022/01/19 07:10:52;;;;;;;;;;;2.40;99.90;;;;;;5076035;28;20023;-75
2022/01/19 07:13:18;;;;;;;;;;;2.50;99.90;;;;;;5058965;28;20274;-75
2022/01/19 07:15:44;;;;;;;;;;;2.50;99.90;;;;;;5057487;28;20283;-74
2022/01/19 07:18:09;;;;;;;;;;;2.60;99.90;;;;;;5076233;28;19995;-75
2022/01/19 07:20:35;;;;;;;;;;;2.60;99.90;;;;;;5057385;28;19920;-75
2022/01/19 07:23:01;;;;;;;;;;;2.70;99.90;;;;;;5076057;28;19916;-75
2022/01/19 07:25:27;;;;;;;;;;;2.70;99.90;;;;;;5076332;28;19948;-75
2022/01/19 07:27:53;;;;;;;;;;;2.70;99.90;;;;;;5076024;28;19932;-75
2022/01/19 07:30:19;;;;;;;;;;;2.80;99.90;;;;;;5076163;28;20287;-75
2022/01/19 07:32:48;;;;;;;;;;;2.80;99.90;;;;;;5057983;28;19924;-76
2022/01/19 07:35:14;;;;;;;;;;;2.80;99.90;;;;;;5059155;28;19931;-75
2022/01/19 07:37:40;;;;;;;;;;;2.90;99.90;;;;;;5075959;28;19920;-75
2022/01/19 07:40:06;;;;;;;;;;;2.90;99.90;;;;;;5058157;28;19912;-75
2022/01/19 07:42:32;;;;;;;;;;;2.90;99.90;;;;;;5055955;28;20307;-75
2022/01/19 07:44:58;;;;;;;;;;;2.90;99.90;;;;;;5053805;28;20319;-75
2022/01/19 07:47:23;;;;;;;;;;;2.90;99.90;;;;;;5075480;28;19913;-76
2022/01/19 07:49:49;;;;;;;;;;;3.00;99.90;;;;;;5075014;28;19919;-75
2022/01/19 07:52:15;;;;;;;;;;;3.00;99.90;;;;;;5074533;28;19925;-75
2022/01/19 07:54:40;;;;;;;;;;;3.00;99.90;;;;;;5075632;28;19913;-75
2022/01/19 07:57:06;;;;;;;;;;;3.10;99.90;;;;;;5075676;28;20307;-75
2022/01/19 07:59:31;;;;;;;;;;;3.10;99.90;;;;;;5074448;28;20315;-75
2022/01/19 08:01:57;;;;;;;;;;;3.10;99.90;;;;;;5052205;28;19960;-76
2022/01/19 08:04:23;;;;;;;;;;;3.20;99.90;;;;;;5069860;28;19944;-76
2022/01/19 08:06:54;;;;;;;;;;;3.20;99.90;;;;;;5073882;28;19973;-76
2022/01/19 08:09:23;;;;;;;;;;;3.20;99.90;;;;;;5072722;28;19966;-76
2022/01/19 08:11:50;;;;;;;;;;;3.10;99.90;;;;;;5072819;28;20011;-76
2022/01/19 08:14:16;;;;;;;;;;;3.20;99.90;;;;;;5074070;28;19912;-76
2022/01/19 08:16:41;;;;;;;;;;;3.20;99.90;;;;;;5080838;28;19920;-75
2022/01/19 08:19:07;;;;;;;;;;;3.30;99.90;;;;;;5080394;28;20012;-76
2022/01/19 08:21:33;;;;;;;;;;;3.30;99.90;;;;;;5081089;28;19948;-76
2022/01/19 08:23:58;;;;;;;;;;;3.30;99.90;;;;;;5062182;28;20300;-75
2022/01/19 08:26:24;;;;;;;;;;;3.30;99.90;;;;;;5074198;28;19931;-75
2022/01/19 08:28:49;;;;;;;;;;;3.40;99.90;;;;;;5073867;28;19916;-75
2022/01/19 08:31:15;;;;;;;;;;;3.40;99.90;;;;;;5071959;28;20019;-76
2022/01/19 08:33:40;;;;;;;;;;;3.40;99.90;;;;;;5064631;28;19912;-76
2022/01/19 08:36:06;;;;;;;;;;;3.40;99.90;;;;;;5073318;28;20330;-76
2022/01/19 08:38:32;;;;;;;;;;;3.40;99.90;;;;;;5073949;28;20015;-75
2022/01/19 08:40:58;;;;;;;;;;;3.50;99.90;;;;;;5073789;28;19916;-75
2022/01/19 08:43:23;;;;;;;;;;;3.50;99.90;;;;;;5074070;28;19917;-76
2022/01/19 08:45:49;;;;;;;;;;;3.50;99.90;;;;;;5060750;28;20330;-76
2022/01/19 08:48:16;;;;;;;;;;;3.50;99.90;;;;;;5072520;28;21327;-76
2022/01/19 08:50:42;;;;;;;;;;;3.50;99.90;;;;;;5069121;28;19920;-76
2022/01/19 08:53:07;;;;;;;;;;;3.60;99.90;;;;;;5068548;28;19926;-75
2022/01/19 08:55:33;;;;;;;;;;;3.60;99.90;;;;;;5069378;28;19916;-76
2022/01/19 08:57:59;;;;;;;;;;;3.60;99.90;;;;;;5068947;28;19921;-76
2022/01/19 09:00:24;;;;;;;;;;;3.60;99.90;;;;;;5060654;28;19917;-77
2022/01/19 09:02:50;;;;;;;;;;;3.60;99.90;;;;;;5068126;28;21018;-76
2022/01/19 09:05:16;;;;;;;;;;;3.60;99.90;;;;;;5069425;28;19916;-76
2022/01/19 09:07:42;;;;;;;;;;;3.70;99.90;;;;;;5069721;28;20023;-76
2022/01/19 09:10:08;;;;;;;;;;;3.70;99.90;;;;;;5062245;28;19920;-76
2022/01/19 09:12:34;;;;;;;;;;;3.70;99.90;;;;;;5065686;28;19956;-76
2022/01/19 09:15:00;;;;;;;;;;;3.80;99.90;;;;;;5066168;28;19923;-76
2022/01/19 09:17:26;;;;;;;;;;;3.80;99.90;;;;;;5068114;28;19916;-76
2022/01/19 09:19:51;;;;;;;;;;;3.80;99.90;;;;;;5069036;28;19924;-76
2022/01/19 09:22:17;;;;;;;;;;;3.80;99.90;;;;;;5069433;28;19920;-76
2022/01/19 09:24:43;;;;;;;;;;;3.90;99.90;;;;;;5069112;28;19916;-75
2022/01/19 09:27:08;;;;;;;;;;;3.90;99.90;;;;;;5075873;28;20041;-76
2022/01/19 09:29:38;;;;;;;;;;;3.90;99.90;;;;;;5062147;28;20008;-76
2022/01/19 09:32:07;;;;;;;;;;;3.90;99.90;;;;;;5058892;28;20003;-76
2022/01/19 09:34:33;;;;;;;;;;;4.00;99.90;;;;;;5069207;28;20558;-75
2022/01/19 09:36:59;;;;;;;;;;;4.00;99.90;;;;;;5058063;28;20005;-76
2022/01/19 09:39:25;;;;;;;;;;;3.90;99.90;;;;;;5052001;28;20007;-76
2022/01/19 09:41:51;;;;;;;;;;;3.90;99.90;;;;;;5070363;28;20306;-77
2022/01/19 09:44:17;;;;;;;;;;;3.90;99.90;;;;;;5074690;28;19916;-76
2022/01/19 09:46:43;;;;;;;;;;;3.90;99.90;;;;;;5080777;28;19926;-76
2022/01/19 09:49:09;;;;;;;;;;;3.90;99.90;;;;;;5073644;28;20011;-77
2022/01/19 09:51:35;;;;;;;;;;;3.90;99.90;;;;;;5071341;28;19970;-76
2022/01/19 09:54:01;;;;;;;;;;;3.90;99.90;;;;;;5062702;28;19916;-76
2022/01/19 09:56:27;;;;;;;;;;;3.90;99.90;;;;;;5071617;28;20012;-77
2022/01/19 09:58:52;;;;;;;;;;;3.90;99.90;;;;;;5064726;28;20031;-77
2022/01/19 10:01:19;;;;;;;;;;;3.90;99.90;;;;;;5059361;28;20481;-77
2022/01/19 10:03:44;;;;;;;;;;;3.90;99.90;;;;;;5071656;28;19923;-77
2022/01/19 10:06:11;;;;;;;;;;;3.90;99.90;;;;;;5062993;28;19912;-77
2022/01/19 10:08:39;;;;;;;;;;;4.00;99.90;;;;;;5060167;28;19916;-76
2022/01/19 10:11:25;;;;;;;;;;;4.00;99.90;;;;;;5047906;28;19994;-78
2022/01/19 10:17:12;;;;;;;;;;;4.00;99.90;;;;;;5072230;28;19939;-77
2022/01/19 10:19:42;;;;;;;;;;;4.00;99.90;;;;;;4991439;28;19917;-78
2022/01/19 10:22:08;;;;;;;;;;;4.00;99.90;;;;;;4974710;28;20321;-78
2022/01/19 10:24:39;;;;;;;;;;;4.00;99.90;;;;;;4976258;28;19965;-80
2022/01/19 10:27:23;;;;;;;;;;;4.00;99.90;;;;;;4973014;28;20309;-81
2022/01/19 10:29:50;;;;;;;;;;;4.00;99.90;;;;;;4991115;28;19918;-76
2022/01/19 10:32:16;;;;;;;;;;;4.00;99.90;;;;;;4972073;28;19917;-76
2022/01/19 10:34:41;;;;;;;;;;;4.00;99.90;;;;;;4992257;28;20004;-77
2022/01/19 10:37:07;;;;;;;;;;;4.00;99.90;;;;;;4996953;28;20336;-77
2022/01/19 10:39:43;;;;;;;;;;;4.00;99.90;;;;;;4990156;28;20440;-79
2022/01/19 10:42:10;;;;;;;;;;;4.00;99.90;;;;;;4987310;28;20353;-77
2022/01/19 10:44:36;;;;;;;;;;;4.00;99.90;;;;;;4995357;28;19914;-77
2022/01/19 10:47:02;;;;;;;;;;;4.00;99.90;;;;;;4993962;28;20343;-79
2022/01/19 10:49:27;;;;;;;;;;;4.00;99.90;;;;;;4994457;28;20000;-77
2022/01/19 10:51:57;;;;;;;;;;;4.00;99.90;;;;;;4991779;28;20033;-76
2022/01/19 10:54:25;;;;;;;;;;;4.00;99.90;;;;;;5055640;28;19920;-76
2022/01/19 10:56:54;;;;;;;;;;;4.00;99.90;;;;;;5059261;28;19923;-77
2022/01/19 10:59:25;;;;;;;;;;;4.00;99.90;;;;;;5071233;28;19993;-78
2022/01/19 11:01:55;;;;;;;;;;;4.10;99.90;;;;;;5071818;28;19917;-77
2022/01/19 11:04:24;;;;;;;;;;;4.10;99.90;;;;;;5072091;28;19917;-79
2022/01/19 11:06:57;;;;;;;;;;;4.10;99.90;;;;;;5069244;28;19939;-77
2022/01/19 11:09:25;;;;;;;;;;;4.10;99.90;;;;;;5071246;28;19925;-77
2022/01/19 11:11:51;;;;;;;;;;;4.10;99.90;;;;;;5071161;28;20024;-76
2022/01/19 11:14:17;;;;;;;;;;;4.10;99.90;;;;;;5071927;28;19923;-78
2022/01/19 11:16:43;;;;;;;;;;;4.10;99.90;;;;;;5070861;28;19917;-77
2022/01/19 11:19:09;;;;;;;;;;;4.10;99.90;;;;;;5071148;28;20332;-81
2022/01/19 11:21:41;;;;;;;;;;;4.10;99.90;;;;;;5076642;28;20233;-77
2022/01/19 11:24:23;;;;;;;;;;;4.20;99.90;;;;;;5072251;28;19926;-78
2022/01/19 11:26:49;;;;;;;;;;;4.40;99.90;;;;;;5063121;28;19916;-77
2022/01/19 11:29:18;;;;;;;;;;;4.50;99.90;;;;;;5071378;28;19924;-77
2022/01/19 11:31:43;;;;;;;;;;;4.50;99.90;;;;;;5052799;28;20360;-78
2022/01/19 11:34:09;;;;;;;;;;;4.50;99.90;;;;;;5070372;28;19912;-77
2022/01/19 11:36:36;;;;;;;;;;;4.50;99.90;;;;;;5052536;28;19916;-79
2022/01/19 11:39:01;;;;;;;;;;;4.40;99.90;;;;;;5052482;28;19924;-78
2022/01/19 11:41:35;;;;;;;;;;;4.40;99.90;;;;;;5071858;28;19919;-77
2022/01/19 11:44:01;;;;;;;;;;;4.40;99.90;;;;;;5068592;28;20343;-77
2022/01/19 11:46:34;;;;;;;;;;;4.40;99.90;;;;;;5049322;28;20004;-77
2022/01/19 11:49:04;;;;;;;;;;;4.40;99.90;;;;;;5056792;28;19917;-79
2022/01/19 11:51:29;;;;;;;;;;;4.50;99.90;;;;;;5052096;28;19913;-77
2022/01/19 11:54:05;;;;;;;;;;;4.60;99.90;;;;;;5052810;28;19920;-78
2022/01/19 11:56:31;;;;;;;;;;;4.60;99.90;;;;;;5063106;28;19935;-79
2022/01/19 11:59:14;;;;;;;;;;;4.70;99.90;;;;;;5045487;28;19999;-77
2022/01/19 12:01:40;;;;;;;;;;;4.70;99.90;;;;;;5048822;28;19912;-77
2022/01/19 12:04:13;;;;;;;;;;;4.70;99.90;;;;;;5051182;28;19924;-79
2022/01/19 12:06:39;;;;;;;;;;;4.80;99.90;;;;;;5069824;28;20605;-77
2022/01/19 12:09:07;;;;;;;;;;;4.80;99.90;;;;;;5071603;28;19924;-77
2022/01/19 12:11:36;;;;;;;;;;;4.90;99.90;;;;;;5054955;28;20374;-77
2022/01/19 12:17:09;;;;;;;;;;;4.90;99.90;;;;;;5070103;28;19923;-78
2022/01/19 12:19:40;;;;;;;;;;;4.90;99.90;;;;;;5066587;28;19920;-77
2022/01/19 12:22:06;;;;;;;;;;;4.90;99.90;;;;;;5049274;28;19920;-78
2022/01/19 12:24:32;;;;;;;;;;;4.90;99.90;;;;;;5059936;28;19968;-78
2022/01/19 12:26:59;;;;;;;;;;;4.90;99.90;;;;;;5063765;28;19971;-77
2022/01/19 12:29:36;;;;;;;;;;;4.90;99.90;;;;;;5062581;28;19913;-79
2022/01/19 12:32:23;;;;;;;;;;;4.90;99.90;;;;;;5049640;28;19917;-81
2022/01/19 12:34:53;;;;;;;;;;;4.90;99.90;;;;;;4991184;28;19971;-77
2022/01/19 12:37:27;;;;;;;;;;;4.90;99.90;;;;;;4988708;28;19917;-78
2022/01/19 12:39:53;;;;;;;;;;;4.90;99.90;;;;;;5009549;28;20514;-78
2022/01/19 12:42:25;;;;;;;;;;;4.90;99.90;;;;;;4991262;28;19920;-86
2022/01/19 12:44:50;;;;;;;;;;;4.90;99.90;;;;;;5007522;28;19933;-81
2022/01/19 12:47:24;;;;;;;;;;;4.90;99.90;;;;;;5010336;28;20528;-79
2022/01/19 12:49:51;;;;;;;;;;;4.90;99.90;;;;;;4990984;28;21315;-78
2022/01/19 12:52:17;;;;;;;;;;;4.90;99.90;;;;;;5008323;28;19976;-77
2022/01/19 12:54:43;;;;;;;;;;;4.90;99.90;;;;;;4992005;28;20280;-79
2022/01/19 12:57:15;;;;;;;;;;;4.90;99.90;;;;;;5007786;28;19917;-78
2022/01/19 12:59:41;;;;;;;;;;;5.00;99.90;;;;;;4991908;28;19922;-78
2022/01/19 13:02:07;;;;;;;;;;;5.00;99.90;;;;;;4990949;28;19968;-78
2022/01/19 13:04:34;;;;;;;;;;;5.10;99.90;;;;;;5006684;28;19917;-78
2022/01/19 13:07:20;;;;;;;;;;;5.10;99.90;;;;;;5007043;28;20359;-79
2022/01/19 13:10:05;;;;;;;;;;;5.10;99.90;;;;;;5008292;28;19920;-78
2022/01/19 13:12:32;;;;;;;;;;;5.10;99.90;;;;;;5054293;28;19930;-77
2022/01/19 13:14:58;;;;;;;;;;;5.10;99.90;;;;;;5069083;28;19912;-78
2022/01/19 13:17:23;;;;;;;;;;;5.10;99.90;;;;;;5050247;28;20346;-77
2022/01/19 13:19:49;;;;;;;;;;;5.10;99.90;;;;;;5067741;28;19920;-78
2022/01/19 13:22:14;;;;;;;;;;;5.10;99.90;;;;;;5072670;28;20322;-79
2022/01/19 13:24:42;;;;;;;;;;;5.20;99.90;;;;;;5055755;28;20338;-78
2022/01/19 13:27:09;;;;;;;;;;;5.10;99.90;;;;;;5072993;28;19920;-78
2022/01/19 13:29:38;;;;;;;;;;;5.10;99.90;;;;;;5073728;28;19954;-78
2022/01/19 13:32:12;;;;;;;;;;;5.10;99.90;;;;;;5058957;28;20338;-80
2022/01/19 13:34:51;;;;;;;;;;;5.10;99.90;;;;;;5074844;28;19935;-78
2022/01/19 13:37:17;;;;;;;;;;;5.10;99.90;;;;;;5056856;28;19935;-78
2022/01/19 13:39:43;;;;;;;;;;;5.10;99.90;;;;;;5074993;28;19959;-79
2022/01/19 13:42:09;;;;;;;;;;;5.10;99.90;;;;;;5075309;28;19913;-78
2022/01/19 13:44:37;;;;;;;;;;;5.10;99.90;;;;;;5057316;28;19969;-79
2022/01/19 13:47:10;;;;;;;;;;;5.20;99.90;;;;;;5074056;28;19912;-78
2022/01/19 13:49:36;;;;;;;;;;;5.10;99.90;;;;;;5074296;28;19916;-77
2022/01/19 13:52:02;;;;;;;;;;;5.10;99.90;;;;;;5074637;28;20348;-77
2022/01/19 13:54:27;;;;;;;;;;;5.20;99.90;;;;;;5074479;28;19920;-76
2022/01/19 13:57:02;;;;;;;;;;;5.10;99.90;;;;;;5052867;28;19959;-76
2022/01/19 13:59:27;;;;;;;;;;;5.10;99.90;;;;;;5072271;28;20063;-77
2022/01/19 14:01:58;;;;;;;;;;;5.20;99.90;;;;;;5056514;28;20041;-78
2022/01/19 14:04:26;;;;;;;;;;;5.20;99.90;;;;;;5074721;28;19919;-76
2022/01/19 14:06:52;;;;;;;;;;;5.20;99.90;;;;;;5074696;28;20304;-77
2022/01/19 14:09:23;;;;;;;;;;;5.20;99.90;;;;;;5074629;28;19919;-75
2022/01/19 14:11:56;;;;;;;;;;;5.20;99.90;;;;;;5071049;28;20005;-74
2022/01/19 14:14:24;;;;;;;;;;;5.20;99.90;;;;;;5073369;28;19920;-76
2022/01/19 14:16:50;;;;;;;;;;;5.20;99.90;;;;;;5056793;28;19920;-75
2022/01/19 14:19:21;;;;;;;;;;;5.20;99.90;;;;;;5056645;28;20002;-75
2022/01/19 14:21:55;;;;;;;;;;;5.20;99.90;;;;;;5074289;28;20307;-75
2022/01/19 14:24:21;;;;;;;;;;;5.20;99.90;;;;;;5073078;28;19917;-75
2022/01/19 14:26:50;;;;;;;;;;;5.30;99.90;;;;;;5070042;28;19919;-74
2022/01/19 14:29:16;;;;;;;;;;;5.30;99.90;;;;;;5069908;28;19916;-75
2022/01/19 14:31:47;;;;;;;;;;;5.30;99.90;;;;;;5072214;28;20401;-74
2022/01/19 14:34:13;;;;;;;;;;;5.30;99.90;;;;;;5072202;28;20315;-75
2022/01/19 14:36:38;;;;;;;;;;;5.30;99.90;;;;;;5070083;28;19919;-75
2022/01/19 14:39:04;;;;;;;;;;;5.40;99.90;;;;;;5072148;28;19920;-74
2022/01/19 14:41:33;;;;;;;;;;;5.40;99.90;;;;;;5060834;28;19919;-74
2022/01/19 14:44:07;;;;;;;;;;;5.40;99.90;;;;;;5071489;28;19920;-74
2022/01/19 14:46:41;;;;;;;;;;;5.40;99.90;;;;;;5055932;28;19958;-74
2022/01/19 14:49:07;;;;;;;;;;;5.40;99.90;;;;;;5056266;28;19944;-74
2022/01/19 14:51:37;;;;;;;;;;;5.40;99.90;;;;;;5072413;28;19919;-75
2022/01/19 14:54:04;;;;;;;;;;;5.40;99.90;;;;;;5072385;28;20229;-74
2022/01/19 14:56:30;;;;;;;;;;;5.30;99.90;;;;;;5068919;28;19920;-74
2022/01/19 14:58:59;;;;;;;;;;;5.40;99.90;;;;;;5073308;28;19916;-75
2022/01/19 15:01:25;;;;;;;;;;;5.30;99.90;;;;;;5069744;28;20067;-74
2022/01/19 15:03:50;;;;;;;;;;;5.30;99.90;;;;;;5073588;28;20366;-75
2022/01/19 15:06:16;;;;;;;;;;;5.30;99.90;;;;;;5072815;28;19916;-74
2022/01/19 15:08:41;;;;;;;;;;;5.40;99.90;;;;;;5072529;28;19990;-74
2022/01/19 15:11:07;;;;;;;;;;;5.50;99.90;;;;;;5071827;28;19924;-74
2022/01/19 15:13:33;;;;;;;;;;;5.50;99.90;;;;;;5071299;28;19927;-75
2022/01/19 15:15:58;;;;;;;;;;;5.50;99.90;;;;;;5075285;28;19919;-74
2022/01/19 15:18:24;;;;;;;;;;;5.50;99.90;;;;;;5075777;28;19920;-74
2022/01/19 15:20:49;;;;;;;;;;;5.60;99.90;;;;;;5082733;28;19912;-75
2022/01/19 15:23:15;;;;;;;;;;;5.60;99.90;;;;;;5074505;28;19962;-73
2022/01/19 15:25:41;;;;;;;;;;;5.60;99.90;;;;;;5072743;28;19917;-74
2022/01/19 15:28:07;;;;;;;;;;;5.70;99.90;;;;;;5072352;28;20057;-75
2022/01/19 15:30:34;;;;;;;;;;;5.80;99.90;;;;;;5072855;28;19916;-75
2022/01/19 15:32:59;;;;;;;;;;;5.80;99.90;;;;;;5070918;28;19913;-74
2022/01/19 15:35:25;;;;;;;;;;;5.80;99.90;;;;;;5072873;28;19916;-74
2022/01/19 15:37:51;;;;;;;;;;;5.90;99.90;;;;;;5072909;28;19940;-74
2022/01/19 15:40:18;;;;;;;;;;;6.00;99.90;;;;;;5072448;28;19912;-74
2022/01/19 15:42:46;;;;;;;;;;;6.10;99.90;;;;;;5072033;28;19916;-74
2022/01/19 15:45:12;;;;;;;;;;;6.10;99.90;;;;;;5055004;28;20215;-74
2022/01/19 15:47:37;;;;;;;;;;;6.20;99.90;;;;;;5072669;28;20014;-74
2022/01/19 15:50:05;;;;;;;;;;;6.30;99.90;;;;;;5072903;28;19912;-75
2022/01/19 15:52:31;;;;;;;;;;;6.40;99.90;;;;;;5090096;28;19912;-77
2022/01/19 15:54:56;;;;;;;;;;;6.50;99.90;;;;;;5092874;28;19923;-75
2022/01/19 15:57:22;;;;;;;;;;;6.50;99.90;;;;;;5061698;28;19913;-75
2022/01/19 15:59:47;;;;;;;;;;;6.60;99.90;;;;;;5059554;28;19921;-74
2022/01/19 16:02:13;;;;;;;;;;;6.60;99.90;;;;;;5071353;28;19962;-75